Startpagina
METAR-TAF:

METAR-TAF

Vliegvelden :

Tongatapu, Tonga

breedte: 21-14S, lengte: 175-09W, hoogte: 38 m

Actueel weer

Dit bericht is 25 minuten geleden gemaakt, om 02:00 UTC
Wind 4 kt uit het oostnoordoosten
Temperatuur 26°C
Vochtigheid 79%
Druk 1016 hPa
Zicht 10 km of meer
Verspreide wolken op 1700 ft
Gebroken wolken op 11000 ft

METAR: NFTF 270200Z 07004KT 9999 SCT017 BKN110 26/22 Q1016 REDZ

Tijdstip: 15:25 (02:25 UTC)

Verwachting

Dit bericht is 3 uur en het 14 minuten geleden gemaakt, om 23:11 UTC
Verwachting geldig van 27 om 00 UTC tot 27 om 24 UTC
Wind 8 kt uit het oosten
Zicht 10 km of meer
Weinig wolken op 1600 ft
Verspreide wolken op 3000 ft
Gebroken wolken op 10000 ft
Wijzigt naar
van 27 om 04 UTC tot 27 om 06 UTC
Wind 3 kt uit variabele richting
Wijzigt naar
van 27 om 19 UTC tot 27 om 21 UTC
Wind 10 kt uit het oosten

TAF: NFTF 262311Z 2700/2724 08008KT 9999 FEW016 SCT030 BKN100 BECMG 2704/2706 VRB03KT BECMG 2719/2721 08010KT

Waarnemingen en weersverwachtingen van meer dan 4000 vliegvelden (METAR en TAF).

De beschikbare stations zijn de gele en rode punten op de kaart.

Ga met uw muis naar het station om de naam te zien.

Klik dan om waarnemingen en weersverwachtingen te zien.

kaart wijzigen: klik op de groene knoppen met een zwart kruis om in te zoomen, op de groene knop met een streepje om uit te zoomen of op de groene pijlen voor aangrenzende kaarten.


METAR-TAF: